sensor_id;sensor_type;location;lat;lon;timestamp;pressure;altitude;pressure_sealevel;temperature;humidity
50867;BME280;36839;51.946;21.002;2023-02-10T00:01:32;101597.59;;;-2.74;100.00
50867;BME280;36839;51.946;21.002;2023-02-10T00:04:01;101588.39;;;-2.76;100.00
50867;BME280;36839;51.946;21.002;2023-02-10T00:06:28;101581.92;;;-2.78;100.00
50867;BME280;36839;51.946;21.002;2023-02-10T00:08:58;101575.23;;;-2.78;100.00
50867;BME280;36839;51.946;21.002;2023-02-10T00:11:26;101574.33;;;-2.81;100.00
50867;BME280;36839;51.946;21.002;2023-02-10T00:14:13;101572.27;;;-2.82;100.00
50867;BME280;36839;51.946;21.002;2023-02-10T00:16:41;101569.61;;;-2.83;100.00
50867;BME280;36839;51.946;21.002;2023-02-10T00:19:08;101570.06;;;-2.84;100.00
50867;BME280;36839;51.946;21.002;2023-02-10T00:21:35;101564.37;;;-2.87;100.00
50867;BME280;36839;51.946;21.002;2023-02-10T00:24:03;101559.00;;;-2.91;100.00
50867;BME280;36839;51.946;21.002;2023-02-10T00:26:30;101561.66;;;-2.92;100.00
50867;BME280;36839;51.946;21.002;2023-02-10T00:28:57;101558.79;;;-2.94;100.00
50867;BME280;36839;51.946;21.002;2023-02-10T00:31:24;101554.44;;;-2.94;100.00
50867;BME280;36839;51.946;21.002;2023-02-10T00:33:51;101557.16;;;-2.94;100.00
50867;BME280;36839;51.946;21.002;2023-02-10T00:36:18;101548.20;;;-2.97;100.00
50867;BME280;36839;51.946;21.002;2023-02-10T00:38:45;101542.64;;;-2.99;100.00
50867;BME280;36839;51.946;21.002;2023-02-10T00:41:15;101536.66;;;-3.02;100.00
50867;BME280;36839;51.946;21.002;2023-02-10T00:43:43;101533.25;;;-3.04;100.00
50867;BME280;36839;51.946;21.002;2023-02-10T00:46:16;101534.42;;;-3.05;100.00
50867;BME280;36839;51.946;21.002;2023-02-10T00:48:44;101532.39;;;-3.04;100.00
50867;BME280;36839;51.946;21.002;2023-02-10T00:51:12;101526.15;;;-3.07;100.00
50867;BME280;36839;51.946;21.002;2023-02-10T00:53:40;101522.83;;;-3.11;100.00
50867;BME280;36839;51.946;21.002;2023-02-10T00:56:08;101523.67;;;-3.15;100.00
50867;BME280;36839;51.946;21.002;2023-02-10T00:58:36;101518.98;;;-3.18;100.00
50867;BME280;36839;51.946;21.002;2023-02-10T01:01:04;101517.36;;;-3.22;100.00
50867;BME280;36839;51.946;21.002;2023-02-10T01:03:32;101517.08;;;-3.24;100.00
50867;BME280;36839;51.946;21.002;2023-02-10T01:05:59;101512.84;;;-3.29;100.00
50867;BME280;36839;51.946;21.002;2023-02-10T01:08:26;101516.70;;;-3.33;100.00
50867;BME280;36839;51.946;21.002;2023-02-10T01:11:02;101513.98;;;-3.33;100.00
50867;BME280;36839;51.946;21.002;2023-02-10T01:13:30;101514.31;;;-3.33;100.00
50867;BME280;36839;51.946;21.002;2023-02-10T01:16:00;101513.37;;;-3.36;100.00
50867;BME280;36839;51.946;21.002;2023-02-10T01:18:27;101508.41;;;-3.39;100.00
50867;BME280;36839;51.946;21.002;2023-02-10T01:20:54;101509.75;;;-3.43;100.00
50867;BME280;36839;51.946;21.002;2023-02-10T01:23:23;101510.23;;;-3.47;100.00
50867;BME280;36839;51.946;21.002;2023-02-10T01:25:53;101512.85;;;-3.48;100.00
50867;BME280;36839;51.946;21.002;2023-02-10T01:28:21;101505.16;;;-3.50;100.00
50867;BME280;36839;51.946;21.002;2023-02-10T01:30:50;101506.26;;;-3.52;100.00
50867;BME280;36839;51.946;21.002;2023-02-10T01:33:18;101502.92;;;-3.55;100.00
50867;BME280;36839;51.946;21.002;2023-02-10T01:35:47;101498.48;;;-3.61;100.00
50867;BME280;36839;51.946;21.002;2023-02-10T01:38:16;101500.10;;;-3.66;100.00
50867;BME280;36839;51.946;21.002;2023-02-10T01:40:42;101500.19;;;-3.69;100.00
50867;BME280;36839;51.946;21.002;2023-02-10T01:43:14;101506.17;;;-3.70;100.00
50867;BME280;36839;51.946;21.002;2023-02-10T01:45:42;101500.04;;;-3.71;100.00
50867;BME280;36839;51.946;21.002;2023-02-10T01:48:12;101504.41;;;-3.72;100.00
50867;BME280;36839;51.946;21.002;2023-02-10T01:50:44;101503.61;;;-3.75;100.00
50867;BME280;36839;51.946;21.002;2023-02-10T01:53:14;101501.60;;;-3.77;100.00
50867;BME280;36839;51.946;21.002;2023-02-10T01:55:45;101500.09;;;-3.80;100.00
50867;BME280;36839;51.946;21.002;2023-02-10T01:58:17;101499.02;;;-3.84;100.00
50867;BME280;36839;51.946;21.002;2023-02-10T02:00:45;101496.48;;;-3.87;100.00
50867;BME280;36839;51.946;21.002;2023-02-10T02:03:13;101500.09;;;-3.85;100.00
50867;BME280;36839;51.946;21.002;2023-02-10T02:05:42;101501.08;;;-3.86;100.00
50867;BME280;36839;51.946;21.002;2023-02-10T02:08:19;101498.64;;;-3.87;100.00
50867;BME280;36839;51.946;21.002;2023-02-10T02:14:14;101503.67;;;-3.93;100.00
50867;BME280;36839;51.946;21.002;2023-02-10T02:17:02;101505.83;;;-3.96;100.00
50867;BME280;36839;51.946;21.002;2023-02-10T02:32:21;101492.92;;;-4.06;100.00
50867;BME280;36839;51.946;21.002;2023-02-10T02:34:55;101485.95;;;-4.07;100.00
50867;BME280;36839;51.946;21.002;2023-02-10T02:37:30;101484.20;;;-4.08;100.00
50867;BME280;36839;51.946;21.002;2023-02-10T02:39:59;101482.57;;;-4.11;100.00
50867;BME280;36839;51.946;21.002;2023-02-10T02:42:31;101480.23;;;-4.17;100.00
50867;BME280;36839;51.946;21.002;2023-02-10T02:45:09;101484.11;;;-4.22;100.00
50867;BME280;36839;51.946;21.002;2023-02-10T02:48:11;101492.40;;;-4.26;100.00
50867;BME280;36839;51.946;21.002;2023-02-10T02:53:56;101500.55;;;-4.26;100.00
50867;BME280;36839;51.946;21.002;2023-02-10T02:56:50;101497.27;;;-4.30;100.00
50867;BME280;36839;51.946;21.002;2023-02-10T02:59:35;101491.85;;;-4.35;100.00
50867;BME280;36839;51.946;21.002;2023-02-10T03:02:12;101488.11;;;-4.40;100.00
50867;BME280;36839;51.946;21.002;2023-02-10T03:04:40;101493.19;;;-4.42;100.00
50867;BME280;36839;51.946;21.002;2023-02-10T03:07:07;101497.05;;;-4.45;100.00
50867;BME280;36839;51.946;21.002;2023-02-10T03:09:35;101495.13;;;-4.45;100.00
50867;BME280;36839;51.946;21.002;2023-02-10T03:12:02;101497.67;;;-4.46;100.00
50867;BME280;36839;51.946;21.002;2023-02-10T03:14:30;101506.41;;;-4.49;100.00
50867;BME280;36839;51.946;21.002;2023-02-10T03:16:59;101502.77;;;-4.48;100.00
50867;BME280;36839;51.946;21.002;2023-02-10T03:19:26;101500.77;;;-4.50;100.00
50867;BME280;36839;51.946;21.002;2023-02-10T03:21:53;101504.39;;;-4.50;100.00
50867;BME280;36839;51.946;21.002;2023-02-10T03:24:20;101503.52;;;-4.50;100.00
50867;BME280;36839;51.946;21.002;2023-02-10T03:26:48;101498.21;;;-4.51;100.00
50867;BME280;36839;51.946;21.002;2023-02-10T03:29:15;101499.27;;;-4.51;100.00
50867;BME280;36839;51.946;21.002;2023-02-10T03:31:43;101493.96;;;-4.50;100.00
50867;BME280;36839;51.946;21.002;2023-02-10T03:34:10;101492.92;;;-4.47;100.00
50867;BME280;36839;51.946;21.002;2023-02-10T03:36:37;101486.87;;;-4.44;100.00
50867;BME280;36839;51.946;21.002;2023-02-10T03:39:05;101479.85;;;-4.43;100.00
50867;BME280;36839;51.946;21.002;2023-02-10T03:41:33;101479.95;;;-4.46;100.00
50867;BME280;36839;51.946;21.002;2023-02-10T03:44:00;101480.58;;;-4.46;100.00
50867;BME280;36839;51.946;21.002;2023-02-10T03:46:27;101486.39;;;-4.44;100.00
50867;BME280;36839;51.946;21.002;2023-02-10T03:48:54;101487.50;;;-4.39;100.00
50867;BME280;36839;51.946;21.002;2023-02-10T03:51:21;101484.70;;;-4.36;100.00
50867;BME280;36839;51.946;21.002;2023-02-10T03:53:48;101484.84;;;-4.34;100.00
50867;BME280;36839;51.946;21.002;2023-02-10T03:56:15;101483.10;;;-4.30;100.00
50867;BME280;36839;51.946;21.002;2023-02-10T03:58:45;101484.78;;;-4.25;100.00
50867;BME280;36839;51.946;21.002;2023-02-10T04:01:15;101477.61;;;-4.20;100.00
50867;BME280;36839;51.946;21.002;2023-02-10T04:03:44;101474.31;;;-4.19;100.00
50867;BME280;36839;51.946;21.002;2023-02-10T04:06:12;101480.50;;;-4.20;100.00
50867;BME280;36839;51.946;21.002;2023-02-10T04:08:39;101476.84;;;-4.17;100.00
50867;BME280;36839;51.946;21.002;2023-02-10T04:11:07;101470.30;;;-4.18;100.00
50867;BME280;36839;51.946;21.002;2023-02-10T04:13:36;101471.11;;;-4.21;100.00
50867;BME280;36839;51.946;21.002;2023-02-10T04:16:06;101470.05;;;-4.25;100.00
50867;BME280;36839;51.946;21.002;2023-02-10T04:18:34;101463.21;;;-4.27;100.00
50867;BME280;36839;51.946;21.002;2023-02-10T04:21:03;101475.73;;;-4.26;100.00
50867;BME280;36839;51.946;21.002;2023-02-10T04:23:31;101476.11;;;-4.23;100.00
50867;BME280;36839;51.946;21.002;2023-02-10T04:25:59;101479.18;;;-4.21;100.00
50867;BME280;36839;51.946;21.002;2023-02-10T04:28:26;101480.49;;;-4.18;100.00
50867;BME280;36839;51.946;21.002;2023-02-10T04:30:55;101480.42;;;-4.19;100.00
50867;BME280;36839;51.946;21.002;2023-02-10T04:33:23;101481.60;;;-4.18;100.00
50867;BME280;36839;51.946;21.002;2023-02-10T04:35:52;101481.40;;;-4.18;100.00
50867;BME280;36839;51.946;21.002;2023-02-10T04:38:20;101476.39;;;-4.18;100.00
50867;BME280;36839;51.946;21.002;2023-02-10T04:40:48;101475.23;;;-4.17;100.00
50867;BME280;36839;51.946;21.002;2023-02-10T04:43:15;101476.87;;;-4.18;100.00
50867;BME280;36839;51.946;21.002;2023-02-10T04:45:42;101475.13;;;-4.18;100.00
50867;BME280;36839;51.946;21.002;2023-02-10T04:48:09;101482.30;;;-4.16;100.00
50867;BME280;36839;51.946;21.002;2023-02-10T04:50:37;101487.12;;;-4.14;100.00
50867;BME280;36839;51.946;21.002;2023-02-10T04:53:04;101487.78;;;-4.13;100.00
50867;BME280;36839;51.946;21.002;2023-02-10T04:55:32;101484.14;;;-4.13;100.00
50867;BME280;36839;51.946;21.002;2023-02-10T04:58:00;101481.98;;;-4.14;100.00
50867;BME280;36839;51.946;21.002;2023-02-10T05:00:27;101483.23;;;-4.14;100.00
50867;BME280;36839;51.946;21.002;2023-02-10T05:02:54;101478.33;;;-4.16;100.00
50867;BME280;36839;51.946;21.002;2023-02-10T05:05:22;101479.23;;;-4.18;100.00
50867;BME280;36839;51.946;21.002;2023-02-10T05:07:52;101473.92;;;-4.21;100.00
50867;BME280;36839;51.946;21.002;2023-02-10T05:10:19;101470.23;;;-4.21;100.00
50867;BME280;36839;51.946;21.002;2023-02-10T05:12:47;101473.75;;;-4.22;100.00
50867;BME280;36839;51.946;21.002;2023-02-10T05:15:14;101478.67;;;-4.25;100.00
50867;BME280;36839;51.946;21.002;2023-02-10T05:17:42;101477.39;;;-4.27;100.00
50867;BME280;36839;51.946;21.002;2023-02-10T05:20:09;101472.22;;;-4.29;100.00
50867;BME280;36839;51.946;21.002;2023-02-10T05:22:37;101477.34;;;-4.30;100.00
50867;BME280;36839;51.946;21.002;2023-02-10T05:25:06;101471.58;;;-4.30;100.00
50867;BME280;36839;51.946;21.002;2023-02-10T05:27:34;101469.19;;;-4.29;100.00
50867;BME280;36839;51.946;21.002;2023-02-10T05:30:02;101471.77;;;-4.28;100.00
50867;BME280;36839;51.946;21.002;2023-02-10T05:32:29;101472.24;;;-4.27;100.00
50867;BME280;36839;51.946;21.002;2023-02-10T05:34:56;101475.86;;;-4.24;100.00
50867;BME280;36839;51.946;21.002;2023-02-10T05:37:25;101476.26;;;-4.20;100.00
50867;BME280;36839;51.946;21.002;2023-02-10T05:39:51;101471.31;;;-4.14;100.00
50867;BME280;36839;51.946;21.002;2023-02-10T05:42:18;101472.06;;;-4.07;100.00
50867;BME280;36839;51.946;21.002;2023-02-10T05:44:46;101469.80;;;-4.00;100.00
50867;BME280;36839;51.946;21.002;2023-02-10T05:47:14;101471.27;;;-3.94;100.00
50867;BME280;36839;51.946;21.002;2023-02-10T05:49:41;101472.64;;;-3.90;100.00
50867;BME280;36839;51.946;21.002;2023-02-10T05:52:08;101469.55;;;-3.86;100.00
50867;BME280;36839;51.946;21.002;2023-02-10T05:54:35;101466.14;;;-3.82;100.00
50867;BME280;36839;51.946;21.002;2023-02-10T05:57:03;101472.95;;;-3.80;100.00
50867;BME280;36839;51.946;21.002;2023-02-10T05:59:30;101468.27;;;-3.80;100.00
50867;BME280;36839;51.946;21.002;2023-02-10T06:01:58;101462.15;;;-3.80;100.00
50867;BME280;36839;51.946;21.002;2023-02-10T06:04:25;101457.33;;;-3.80;100.00
50867;BME280;36839;51.946;21.002;2023-02-10T06:06:52;101446.39;;;-3.79;100.00
50867;BME280;36839;51.946;21.002;2023-02-10T06:09:19;101462.16;;;-3.76;100.00
50867;BME280;36839;51.946;21.002;2023-02-10T06:11:50;101479.33;;;-3.71;100.00
50867;BME280;36839;51.946;21.002;2023-02-10T06:14:18;101488.60;;;-3.65;100.00
50867;BME280;36839;51.946;21.002;2023-02-10T06:16:49;101487.59;;;-3.58;100.00
50867;BME280;36839;51.946;21.002;2023-02-10T06:19:16;101491.45;;;-3.52;100.00
50867;BME280;36839;51.946;21.002;2023-02-10T06:21:44;101490.98;;;-3.47;100.00
50867;BME280;36839;51.946;21.002;2023-02-10T06:24:11;101495.67;;;-3.41;100.00
50867;BME280;36839;51.946;21.002;2023-02-10T06:26:40;101499.46;;;-3.36;100.00
50867;BME280;36839;51.946;21.002;2023-02-10T06:29:07;101500.66;;;-3.32;100.00
50867;BME280;36839;51.946;21.002;2023-02-10T06:31:34;101494.19;;;-3.26;100.00
50867;BME280;36839;51.946;21.002;2023-02-10T06:34:01;101498.89;;;-3.23;100.00
50867;BME280;36839;51.946;21.002;2023-02-10T06:36:31;101500.30;;;-3.19;100.00
50867;BME280;36839;51.946;21.002;2023-02-10T06:38:58;101501.36;;;-3.15;100.00
50867;BME280;36839;51.946;21.002;2023-02-10T06:41:26;101504.67;;;-3.10;100.00
50867;BME280;36839;51.946;21.002;2023-02-10T06:43:56;101505.13;;;-3.05;100.00
50867;BME280;36839;51.946;21.002;2023-02-10T06:46:29;101509.05;;;-3.00;100.00
50867;BME280;36839;51.946;21.002;2023-02-10T06:48:56;101510.05;;;-2.95;100.00
50867;BME280;36839;51.946;21.002;2023-02-10T06:51:23;101507.98;;;-2.91;100.00
50867;BME280;36839;51.946;21.002;2023-02-10T06:53:51;101514.97;;;-2.86;100.00
50867;BME280;36839;51.946;21.002;2023-02-10T06:56:18;101517.61;;;-2.82;100.00
50867;BME280;36839;51.946;21.002;2023-02-10T06:58:45;101525.65;;;-2.78;100.00
50867;BME280;36839;51.946;21.002;2023-02-10T07:01:16;101523.90;;;-2.73;100.00
50867;BME280;36839;51.946;21.002;2023-02-10T07:03:45;101528.60;;;-2.68;100.00
50867;BME280;36839;51.946;21.002;2023-02-10T07:06:13;101528.14;;;-2.61;100.00
50867;BME280;36839;51.946;21.002;2023-02-10T07:08:40;101520.02;;;-2.56;100.00
50867;BME280;36839;51.946;21.002;2023-02-10T07:11:07;101522.42;;;-2.53;100.00
50867;BME280;36839;51.946;21.002;2023-02-10T07:13:35;101520.98;;;-2.51;100.00
50867;BME280;36839;51.946;21.002;2023-02-10T07:16:02;101524.98;;;-2.49;100.00
50867;BME280;36839;51.946;21.002;2023-02-10T07:18:29;101529.17;;;-2.46;100.00
50867;BME280;36839;51.946;21.002;2023-02-10T07:20:56;101531.70;;;-2.41;100.00
50867;BME280;36839;51.946;21.002;2023-02-10T07:23:24;101531.52;;;-2.37;100.00
50867;BME280;36839;51.946;21.002;2023-02-10T07:25:53;101527.19;;;-2.36;100.00
50867;BME280;36839;51.946;21.002;2023-02-10T07:28:20;101529.98;;;-2.33;100.00
50867;BME280;36839;51.946;21.002;2023-02-10T07:30:47;101528.00;;;-2.31;100.00
50867;BME280;36839;51.946;21.002;2023-02-10T07:33:14;101526.06;;;-2.28;100.00
50867;BME280;36839;51.946;21.002;2023-02-10T07:35:41;101523.49;;;-2.25;100.00
50867;BME280;36839;51.946;21.002;2023-02-10T07:38:08;101524.66;;;-2.23;100.00
50867;BME280;36839;51.946;21.002;2023-02-10T07:40:35;101534.29;;;-2.20;100.00
50867;BME280;36839;51.946;21.002;2023-02-10T07:43:02;101525.39;;;-2.18;100.00
50867;BME280;36839;51.946;21.002;2023-02-10T07:45:29;101524.48;;;-2.14;100.00
50867;BME280;36839;51.946;21.002;2023-02-10T07:47:59;101528.33;;;-2.10;100.00
50867;BME280;36839;51.946;21.002;2023-02-10T07:50:27;101525.95;;;-2.08;100.00
50867;BME280;36839;51.946;21.002;2023-02-10T07:52:54;101527.86;;;-2.09;100.00
50867;BME280;36839;51.946;21.002;2023-02-10T07:55:21;101526.72;;;-2.01;100.00
50867;BME280;36839;51.946;21.002;2023-02-10T07:57:49;101517.13;;;-1.90;100.00
50867;BME280;36839;51.946;21.002;2023-02-10T08:00:18;101512.73;;;-1.81;100.00
50867;BME280;36839;51.946;21.002;2023-02-10T08:02:45;101511.11;;;-1.76;100.00
50867;BME280;36839;51.946;21.002;2023-02-10T08:05:12;101510.08;;;-1.71;100.00
50867;BME280;36839;51.946;21.002;2023-02-10T08:07:39;101513.12;;;-1.62;100.00
50867;BME280;36839;51.946;21.002;2023-02-10T08:10:06;101510.89;;;-1.53;100.00
50867;BME280;36839;51.946;21.002;2023-02-10T08:12:33;101512.85;;;-1.47;100.00
50867;BME280;36839;51.946;21.002;2023-02-10T08:15:01;101516.98;;;-1.36;100.00
50867;BME280;36839;51.946;21.002;2023-02-10T08:17:28;101521.90;;;-1.28;100.00
50867;BME280;36839;51.946;21.002;2023-02-10T08:19:56;101522.02;;;-1.20;100.00
50867;BME280;36839;51.946;21.002;2023-02-10T08:22:26;101525.58;;;-1.17;100.00
50867;BME280;36839;51.946;21.002;2023-02-10T08:24:55;101523.48;;;-1.15;100.00
50867;BME280;36839;51.946;21.002;2023-02-10T08:27:23;101515.80;;;-1.13;100.00
50867;BME280;36839;51.946;21.002;2023-02-10T08:29:51;101515.79;;;-1.10;100.00
50867;BME280;36839;51.946;21.002;2023-02-10T08:32:18;101518.48;;;-1.08;100.00
50867;BME280;36839;51.946;21.002;2023-02-10T08:34:47;101519.41;;;-1.03;100.00
50867;BME280;36839;51.946;21.002;2023-02-10T08:37:15;101524.92;;;-0.97;100.00
50867;BME280;36839;51.946;21.002;2023-02-10T08:39:43;101527.42;;;-0.89;100.00
50867;BME280;36839;51.946;21.002;2023-02-10T08:42:10;101528.27;;;-0.81;100.00
50867;BME280;36839;51.946;21.002;2023-02-10T08:44:37;101533.69;;;-0.76;100.00
50867;BME280;36839;51.946;21.002;2023-02-10T08:47:04;101522.75;;;-0.72;100.00
50867;BME280;36839;51.946;21.002;2023-02-10T08:49:32;101523.05;;;-0.62;100.00
50867;BME280;36839;51.946;21.002;2023-02-10T08:52:00;101517.36;;;-0.57;100.00
50867;BME280;36839;51.946;21.002;2023-02-10T08:54:27;101512.15;;;-0.53;100.00
50867;BME280;36839;51.946;21.002;2023-02-10T08:57:00;101510.83;;;-0.49;100.00
50867;BME280;36839;51.946;21.002;2023-02-10T09:00:02;101507.34;;;-0.40;100.00
50867;BME280;36839;51.946;21.002;2023-02-10T09:02:58;101504.84;;;-0.42;100.00
50867;BME280;36839;51.946;21.002;2023-02-10T09:05:26;101509.96;;;-0.44;100.00
50867;BME280;36839;51.946;21.002;2023-02-10T09:07:53;101517.95;;;-0.40;100.00
50867;BME280;36839;51.946;21.002;2023-02-10T09:10:20;101519.48;;;-0.32;100.00
50867;BME280;36839;51.946;21.002;2023-02-10T09:12:48;101525.75;;;-0.30;100.00
50867;BME280;36839;51.946;21.002;2023-02-10T09:15:18;101523.81;;;-0.31;100.00
50867;BME280;36839;51.946;21.002;2023-02-10T09:17:45;101520.98;;;-0.21;100.00
50867;BME280;36839;51.946;21.002;2023-02-10T09:20:13;101527.84;;;-0.17;100.00
50867;BME280;36839;51.946;21.002;2023-02-10T09:22:41;101537.86;;;-0.18;100.00
50867;BME280;36839;51.946;21.002;2023-02-10T09:28:21;101557.66;;;-0.04;100.00
50867;BME280;36839;51.946;21.002;2023-02-10T09:31:12;101564.11;;;0.05;100.00
50867;BME280;36839;51.946;21.002;2023-02-10T09:37:50;101571.27;;;0.07;100.00
50867;BME280;36839;51.946;21.002;2023-02-10T09:40:30;101571.69;;;0.10;100.00
50867;BME280;36839;51.946;21.002;2023-02-10T09:43:38;101566.33;;;0.11;100.00
50867;BME280;36839;51.946;21.002;2023-02-10T09:50:03;101565.91;;;0.18;100.00
50867;BME280;36839;51.946;21.002;2023-02-10T09:55:21;101579.48;;;0.28;100.00
50867;BME280;36839;51.946;21.002;2023-02-10T09:57:52;101567.72;;;0.24;100.00
50867;BME280;36839;51.946;21.002;2023-02-10T10:00:30;101576.81;;;0.27;100.00
50867;BME280;36839;51.946;21.002;2023-02-10T10:02:58;101582.24;;;0.29;100.00
50867;BME280;36839;51.946;21.002;2023-02-10T10:08:29;101575.23;;;0.29;100.00
50867;BME280;36839;51.946;21.002;2023-02-10T10:11:05;101579.02;;;0.27;100.00
50867;BME280;36839;51.946;21.002;2023-02-10T10:13:36;101574.44;;;0.36;100.00
50867;BME280;36839;51.946;21.002;2023-02-10T10:16:14;101574.06;;;0.44;100.00
50867;BME280;36839;51.946;21.002;2023-02-10T10:19:01;101565.73;;;0.53;100.00
50867;BME280;36839;51.946;21.002;2023-02-10T10:24:11;101563.77;;;0.65;100.00
50867;BME280;36839;51.946;21.002;2023-02-10T10:29:42;101566.87;;;0.63;100.00
50867;BME280;36839;51.946;21.002;2023-02-10T10:34:56;101556.97;;;0.65;100.00
50867;BME280;36839;51.946;21.002;2023-02-10T10:37:25;101560.52;;;0.66;100.00
50867;BME280;36839;51.946;21.002;2023-02-10T10:39:57;101558.44;;;0.67;100.00
50867;BME280;36839;51.946;21.002;2023-02-10T10:42:46;101553.34;;;0.69;100.00
50867;BME280;36839;51.946;21.002;2023-02-10T10:45:20;101550.41;;;0.66;100.00
50867;BME280;36839;51.946;21.002;2023-02-10T10:48:04;101555.55;;;0.69;100.00
50867;BME280;36839;51.946;21.002;2023-02-10T10:50:33;101556.44;;;0.75;100.00
50867;BME280;36839;51.946;21.002;2023-02-10T10:53:11;101547.98;;;0.76;100.00
50867;BME280;36839;51.946;21.002;2023-02-10T10:55:45;101556.56;;;0.82;100.00
50867;BME280;36839;51.946;21.002;2023-02-10T10:58:35;101562.75;;;0.88;100.00
50867;BME280;36839;51.946;21.002;2023-02-10T11:01:04;101566.98;;;0.95;100.00
50867;BME280;36839;51.946;21.002;2023-02-10T11:03:33;101561.18;;;1.03;100.00
50867;BME280;36839;51.946;21.002;2023-02-10T11:06:07;101560.38;;;1.04;100.00
50867;BME280;36839;51.946;21.002;2023-02-10T11:08:58;101569.13;;;1.02;100.00
50867;BME280;36839;51.946;21.002;2023-02-10T11:11:38;101569.54;;;0.92;100.00
50867;BME280;36839;51.946;21.002;2023-02-10T11:14:18;101564.95;;;0.84;100.00
50867;BME280;36839;51.946;21.002;2023-02-10T11:16:51;101564.60;;;0.80;100.00
50867;BME280;36839;51.946;21.002;2023-02-10T11:19:26;101570.36;;;0.72;100.00
50867;BME280;36839;51.946;21.002;2023-02-10T11:21:54;101573.36;;;0.66;100.00
50867;BME280;36839;51.946;21.002;2023-02-10T11:24:27;101583.77;;;0.69;100.00
50867;BME280;36839;51.946;21.002;2023-02-10T11:27:06;101578.27;;;0.71;100.00
50867;BME280;36839;51.946;21.002;2023-02-10T11:29:50;101577.21;;;0.79;100.00
50867;BME280;36839;51.946;21.002;2023-02-10T11:32:26;101566.93;;;0.86;100.00
50867;BME280;36839;51.946;21.002;2023-02-10T11:34:57;101561.85;;;0.90;100.00
50867;BME280;36839;51.946;21.002;2023-02-10T11:37:36;101558.27;;;0.91;100.00
50867;BME280;36839;51.946;21.002;2023-02-10T11:40:27;101554.20;;;0.90;100.00
50867;BME280;36839;51.946;21.002;2023-02-10T11:43:01;101563.30;;;0.97;100.00
50867;BME280;36839;51.946;21.002;2023-02-10T11:45:36;101570.91;;;1.02;100.00
50867;BME280;36839;51.946;21.002;2023-02-10T11:48:21;101575.27;;;1.02;100.00
50867;BME280;36839;51.946;21.002;2023-02-10T11:51:11;101570.71;;;1.04;100.00
50867;BME280;36839;51.946;21.002;2023-02-10T11:53:40;101577.15;;;1.02;100.00
50867;BME280;36839;51.946;21.002;2023-02-10T11:59:01;101586.94;;;1.03;100.00
50867;BME280;36839;51.946;21.002;2023-02-10T12:09:55;101600.27;;;1.01;100.00
50867;BME280;36839;51.946;21.002;2023-02-10T12:12:47;101603.30;;;1.01;100.00
50867;BME280;36839;51.946;21.002;2023-02-10T12:15:56;101603.45;;;1.00;100.00
50867;BME280;36839;51.946;21.002;2023-02-10T12:19:00;101610.00;;;1.05;100.00
50867;BME280;36839;51.946;21.002;2023-02-10T12:21:49;101613.66;;;1.09;100.00
50867;BME280;36839;51.946;21.002;2023-02-10T12:38:10;101601.02;;;1.01;100.00
50867;BME280;36839;51.946;21.002;2023-02-10T12:44:19;101597.69;;;0.96;100.00
50867;BME280;36839;51.946;21.002;2023-02-10T12:52:20;101593.14;;;1.00;100.00
50867;BME280;36839;51.946;21.002;2023-02-10T12:57:59;101601.16;;;1.06;100.00
50867;BME280;36839;51.946;21.002;2023-02-10T13:00:37;101599.94;;;1.05;100.00
50867;BME280;36839;51.946;21.002;2023-02-10T13:03:19;101590.55;;;1.05;100.00
50867;BME280;36839;51.946;21.002;2023-02-10T13:08:24;101596.11;;;1.09;100.00
50867;BME280;36839;51.946;21.002;2023-02-10T13:10:58;101591.48;;;1.09;100.00
50867;BME280;36839;51.946;21.002;2023-02-10T13:13:31;101588.84;;;1.13;100.00
50867;BME280;36839;51.946;21.002;2023-02-10T13:18:32;101590.70;;;1.20;100.00
50867;BME280;36839;51.946;21.002;2023-02-10T13:21:09;101597.31;;;1.22;100.00
50867;BME280;36839;51.946;21.002;2023-02-10T13:23:46;101598.64;;;1.23;100.00
50867;BME280;36839;51.946;21.002;2023-02-10T13:32:11;101597.80;;;1.19;100.00
50867;BME280;36839;51.946;21.002;2023-02-10T13:34:52;101591.30;;;1.22;100.00
50867;BME280;36839;51.946;21.002;2023-02-10T13:37:39;101593.81;;;1.22;100.00
50867;BME280;36839;51.946;21.002;2023-02-10T13:40:28;101593.64;;;1.22;100.00
50867;BME280;36839;51.946;21.002;2023-02-10T13:43:06;101591.27;;;1.17;100.00
50867;BME280;36839;51.946;21.002;2023-02-10T13:45:36;101591.35;;;1.19;100.00
50867;BME280;36839;51.946;21.002;2023-02-10T13:48:06;101589.52;;;1.17;100.00
50867;BME280;36839;51.946;21.002;2023-02-10T13:50:52;101595.20;;;1.17;100.00
50867;BME280;36839;51.946;21.002;2023-02-10T13:58:52;101598.37;;;1.16;100.00
50867;BME280;36839;51.946;21.002;2023-02-10T14:03:57;101613.36;;;1.17;100.00
50867;BME280;36839;51.946;21.002;2023-02-10T14:06:39;101612.99;;;1.17;100.00
50867;BME280;36839;51.946;21.002;2023-02-10T14:11:51;101623.33;;;1.11;100.00
50867;BME280;36839;51.946;21.002;2023-02-10T14:14:33;101626.85;;;1.09;100.00
50867;BME280;36839;51.946;21.002;2023-02-10T14:17:21;101623.31;;;1.08;100.00
50867;BME280;36839;51.946;21.002;2023-02-10T14:19:57;101626.61;;;1.05;100.00
50867;BME280;36839;51.946;21.002;2023-02-10T14:22:29;101626.34;;;1.03;100.00
50867;BME280;36839;51.946;21.002;2023-02-10T14:25:32;101632.29;;;1.03;100.00
50867;BME280;36839;51.946;21.002;2023-02-10T14:28:03;101632.14;;;1.01;100.00
50867;BME280;36839;51.946;21.002;2023-02-10T14:30:39;101631.70;;;1.02;100.00
50867;BME280;36839;51.946;21.002;2023-02-10T14:33:21;101629.65;;;1.01;100.00
50867;BME280;36839;51.946;21.002;2023-02-10T14:35:53;101629.23;;;1.00;100.00
50867;BME280;36839;51.946;21.002;2023-02-10T14:38:27;101631.75;;;0.97;100.00